Time;durP1;ratioP1;P1;durP2;ratioP2;P2;SDS_P1;SDS_P2;PMS_P1;PMS_P2;Temp;Humidity;BMP_temperature;BMP_pressure;BME280_temperature;BME280_humidity;BME280_pressure;Samples;Min_cycle;Max_cycle;Signal;HPM_P1;HPM_P2
2020/12/27 00:01:00;;;;;;;;;;;;;;;4.09;65.07;100709.72;15732018;28;20037;-54
2020/12/27 00:08:34;;;;;;;1999.90;999.90;;;;;;;3.93;65.20;100682.22;15745933;28;19920;-56
2020/12/27 00:16:07;;;;;;;1999.90;999.90;;;;;;;3.81;65.57;100668.00;15744292;28;20051;-52
2020/12/27 00:23:40;;;;;;;1999.90;999.90;;;;;;;4.03;64.75;100659.22;15745549;28;20177;-52
2020/12/27 00:31:17;;;;;;;1999.90;999.90;;;;;;;3.98;64.80;100643.53;15727122;28;20045;-54
2020/12/27 00:38:50;;;;;;;1999.90;999.90;;;;;;;3.93;65.08;100637.22;15744658;28;20045;-58
2020/12/27 00:46:23;;;;;;;1999.90;999.90;;;;;;;3.78;65.43;100627.16;15743580;28;20049;-55
2020/12/27 00:53:56;;;;;;;1999.90;999.90;;;;;;;3.72;65.53;100617.28;15743341;28;20048;-57
2020/12/27 01:01:31;;;;;;;1999.90;999.90;;;;;;;3.86;65.10;100601.72;15725638;28;20424;-53
2020/12/27 01:09:14;;;;;;;1999.90;999.90;;;;;;;3.90;64.68;100590.91;15725070;28;20485;-52
2020/12/27 01:16:49;;;;;;;1999.90;999.90;;;;;;;3.95;64.49;100569.56;15724666;28;20442;-56
2020/12/27 01:24:22;;;;;;;;;;;;;;;3.94;64.57;100558.81;15707700;28;20044;-56
2020/12/27 01:32:00;;;;;;;1999.90;999.90;;;;;;;3.85;64.52;100552.28;15723958;28;19920;-54
2020/12/27 01:39:43;;;;;;;1999.90;999.90;;;;;;;4.01;63.83;100523.41;15723371;28;20117;-53
2020/12/27 01:47:19;;;;;;;;;;;;;;;3.94;64.20;100501.66;15707227;28;20410;-58
2020/12/27 01:54:54;;;;;;;1999.90;999.90;;;;;;;3.85;64.35;100478.56;15705330;28;20052;-57
2020/12/27 02:02:27;;;;;;;1999.90;999.90;;;;;;;4.04;63.58;100468.41;15740423;28;20509;-56
2020/12/27 02:10:15;;;;;;;1999.90;999.90;;;;;;;3.86;64.26;100457.34;15740022;28;20056;-54
2020/12/27 02:17:48;;;;;;;1999.90;999.90;;;;;;;3.82;64.36;100448.00;15739476;28;20106;-55
2020/12/27 02:25:29;;;;;;;1999.90;999.90;;;;;;;3.92;63.97;100428.53;15704424;28;20050;-55
2020/12/27 02:33:16;;;;;;;1999.90;999.90;;;;;;;3.98;63.53;100402.53;15720956;28;20377;-55
2020/12/27 02:40:51;;;;;;;1999.90;999.90;;;;;;;3.74;63.37;100377.69;15720412;28;20166;-56
2020/12/27 02:48:38;;;;;;;1999.90;999.90;;;;;;;3.75;63.31;100362.78;15720673;28;20482;-54
2020/12/27 02:56:22;;;;;;;1999.90;999.90;;;;;;;3.87;62.43;100354.09;15719222;28;20102;-56
2020/12/27 03:03:55;;;;;;;1999.90;999.90;;;;;;;3.92;62.34;100323.66;15702130;28;20528;-58
2020/12/27 03:11:34;;;;;;;1999.90;999.90;;;;;;;3.54;63.49;100303.47;15718454;28;20064;-58
2020/12/27 03:19:06;;;;;;;1999.90;999.90;;;;;;;3.56;63.44;100295.75;15736335;28;20444;-58
2020/12/27 03:27:18;;;;;;;1999.90;999.90;;;;;;;3.66;63.73;100285.38;15736101;28;20140;-57
2020/12/27 03:34:50;;;;;;;;;;;;;;;3.67;63.12;100272.41;15734528;28;20048;-57
2020/12/27 03:42:24;;;;;;;1999.90;999.90;;;;;;;3.54;63.65;100265.66;15718126;28;19938;-59
2020/12/27 03:50:06;;;;;;;1999.90;999.90;;;;;;;3.48;63.53;100267.69;15717789;28;20101;-58
2020/12/27 03:57:45;;;;;;;1999.90;999.90;;;;;;;3.26;64.26;100244.56;15717008;28;20051;-55
2020/12/27 04:05:50;;;;;;;1999.90;999.90;;;;;;;3.48;63.31;100228.25;15719729;28;20384;-56
2020/12/27 04:13:30;;;;;;;1999.90;999.90;;;;;;;3.21;64.04;100200.50;15717145;28;20051;-58
2020/12/27 04:21:08;;;;;;;1999.90;999.90;;;;;;;3.30;63.90;100182.16;15724228;28;20162;-58
2020/12/27 04:28:42;;;;;;;1999.90;999.90;;;;;;;3.18;63.89;100163.31;15727461;28;20055;-56
2020/12/27 04:36:16;;;;;;;1999.90;999.90;;;;;;;3.32;63.43;100153.16;15744972;28;20565;-54
2020/12/27 04:43:50;;;;;;;1999.90;999.90;;;;;;;3.07;64.06;100125.97;15726408;28;20044;-57
2020/12/27 04:51:25;;;;;;;1999.90;999.90;;;;;;;3.05;63.94;100109.75;15725392;28;20039;-55
2020/12/27 04:59:11;;;;;;;1999.90;999.90;;;;;;;3.09;63.61;100088.72;15708200;28;20084;-56
2020/12/27 05:06:45;;;;;;;1999.90;999.90;;;;;;;3.03;63.61;100103.72;15723528;28;20547;-58
2020/12/27 05:14:25;;;;;;;1999.90;999.90;;;;;;;3.20;63.54;100111.44;15706833;28;20048;-58
2020/12/27 05:22:08;;;;;;;1999.90;999.90;;;;;;;3.01;63.49;100083.06;15723212;28;20515;-56
2020/12/27 05:30:04;;;;;;;1999.90;999.90;;;;;;;2.81;64.10;100081.41;15740255;28;20139;-57
2020/12/27 05:38:12;;;;;;;1999.90;999.90;;;;;;;3.02;63.68;100040.59;15740143;28;20147;-58
2020/12/27 05:46:05;;;;;;;1999.90;999.90;;;;;;;3.03;63.68;100006.44;15739164;28;20036;-58
2020/12/27 05:53:44;;;;;;;1999.90;999.90;;;;;;;2.79;64.32;100012.00;15721134;28;20053;-58
2020/12/27 06:01:22;;;;;;;1999.90;999.90;;;;;;;2.65;64.18;99976.13;15720828;28;20210;-55
2020/12/27 06:09:09;;;;;;;1999.90;999.90;;;;;;;2.75;64.04;99961.38;15704592;28;20055;-58
2020/12/27 06:17:02;;;;;;;1999.90;999.90;;;;;;;2.66;63.49;99910.84;15720296;28;20041;-54
2020/12/27 06:25:04;;;;;;;1999.90;999.90;;;;;;;2.51;63.43;99914.66;15737469;28;20052;-58
2020/12/27 06:32:47;;;;;;;1999.90;999.90;;;;;;;2.67;63.32;99895.94;15719748;28;20037;-52
2020/12/27 06:40:20;;;;;;;1999.90;999.90;;;;;;;2.55;62.89;99893.66;15718712;28;20082;-57
2020/12/27 06:48:39;;;;;;;1999.90;999.90;;;;;;;2.58;62.49;99863.56;15718539;28;20032;-58
2020/12/27 06:56:52;;;;;;;1999.90;999.90;;;;;;;2.47;62.44;99859.34;15736201;28;20086;-54
2020/12/27 07:04:36;;;;;;;1999.90;999.90;;;;;;;2.68;62.20;99828.72;15735679;28;20032;-57
2020/12/27 07:12:12;;;;;;;1999.90;999.90;;;;;;;2.57;62.01;99830.81;15736065;28;20064;-55
2020/12/27 07:19:50;;;;;;;1999.90;999.90;;;;;;;2.74;61.48;99828.34;15735468;28;20154;-58
2020/12/27 07:27:29;;;;;;;1999.90;999.90;;;;;;;2.63;61.04;99823.31;15717099;28;20049;-56
2020/12/27 07:35:08;;;;;;;1999.90;999.90;;;;;;;2.64;60.82;99817.50;15734785;28;20131;-52
2020/12/27 07:42:41;;;;;;;1999.90;999.90;;;;;;;2.67;60.73;99792.09;15717559;28;20083;-58
2020/12/27 07:50:19;;;;;;;1999.90;999.90;;;;;;;2.64;60.03;99791.91;15734466;28;20090;-56
2020/12/27 07:57:52;;;;;;;1999.90;999.90;;;;;;;2.42;60.11;99771.34;15745891;28;20063;-58
2020/12/27 08:05:28;;;;;;;1999.90;999.90;;;;;;;2.41;59.67;99774.41;15746192;28;20047;-56
2020/12/27 08:13:03;;;;;;;1999.90;999.90;;;;;;;2.36;58.98;99749.69;15745780;28;20359;-54
2020/12/27 08:20:46;;;;;;;1999.90;999.90;;;;;;;2.45;58.23;99747.88;15745278;28;20564;-55
2020/12/27 08:28:19;;;;;;;1999.90;999.90;;;;;;;2.46;57.59;99775.09;15744809;28;20063;-58
2020/12/27 08:35:52;;;;;;;1999.90;999.90;;;;;;;2.57;57.43;99754.53;15745212;28;20094;-57
2020/12/27 08:43:34;;;;;;;1999.90;999.90;;;;;;;2.68;56.41;99763.41;15744496;28;20557;-55
2020/12/27 08:51:08;;;;;;;1999.90;999.90;;;;;;;2.78;55.62;99785.28;15739205;28;20485;-58
2020/12/27 08:58:53;;;;;;;1999.90;999.90;;;;;;;2.66;55.94;99765.66;15743345;28;20406;-55
2020/12/27 09:06:27;;;;;;;1999.90;999.90;;;;;;;3.03;55.39;99772.16;15724358;28;20032;-57
2020/12/27 09:13:59;;;;;;;;;;;;;;;3.06;54.71;99766.03;15742524;28;20428;-53
2020/12/27 09:21:37;;;;;;;1999.90;999.90;;;;;;;2.87;55.01;99750.38;15742296;28;20018;-53
2020/12/27 09:29:17;;;;;;;1999.90;999.90;;;;;;;3.35;54.06;99716.88;15724027;28;20045;-56
2020/12/27 09:36:51;;;;;;;1999.90;999.90;;;;;;;3.05;54.92;99709.25;15741207;28;20052;-55
2020/12/27 09:44:29;;;;;;;1999.90;999.90;;;;;;;3.00;54.87;99690.88;15740858;28;20044;-53
2020/12/27 09:52:05;;;;;;;1999.90;999.90;;;;;;;2.98;54.45;99679.34;15740619;28;20377;-56
2020/12/27 09:59:40;;;;;;;1999.90;999.90;;;;;;;3.19;53.98;99663.19;15698488;28;20037;-57
2020/12/27 10:07:14;;;;;;;1999.90;999.90;;;;;;;2.89;54.66;99643.44;15739127;28;20403;-56
2020/12/27 10:14:47;;;;;;;1999.90;999.90;;;;;;;3.34;53.45;99637.22;15719092;28;20055;-54
2020/12/27 10:22:20;;;;;;;1999.90;999.90;;;;;;;3.05;53.47;99621.06;15737989;28;20501;-56
2020/12/27 10:29:55;;;;;;;;;;;;;;;3.39;52.84;99621.38;15739130;28;20123;-56
2020/12/27 10:37:28;;;;;;;1999.90;999.90;;;;;;;3.18;53.11;99600.91;15717719;28;20278;-53
2020/12/27 10:45:02;;;;;;;1999.90;999.90;;;;;;;3.06;52.93;99568.38;15718069;28;20474;-58
2020/12/27 10:52:35;;;;;;;;;;;;;;;3.21;52.24;99523.09;15735847;28;20514;-55
2020/12/27 11:00:08;;;;;;;1999.90;999.90;;;;;;;2.98;52.59;99533.31;15734975;28;19920;-59
2020/12/27 11:07:42;;;;;;;1999.90;999.90;;;;;;;3.14;52.35;99525.50;15748711;28;20124;-55
2020/12/27 11:15:15;;;;;;;1999.90;999.90;;;;;;;3.40;51.67;99514.63;15731867;28;20064;-57
2020/12/27 11:22:49;;;;;;;1999.90;999.90;;;;;;;3.23;51.86;99481.44;15777195;28;20047;-60
2020/12/27 11:30:21;;;;;;;1999.90;999.90;;;;;;;3.44;51.51;99443.97;15784119;28;20099;-55
2020/12/27 11:37:55;;;;;;;1999.90;999.90;;;;;;;3.47;51.03;99432.28;15745367;28;20404;-54
2020/12/27 11:45:27;;;;;;;1999.90;999.90;;;;;;;3.45;50.45;99416.06;15689821;28;20148;-55
2020/12/27 11:53:01;;;;;;;1999.90;999.90;;;;;;;3.42;50.13;99391.84;15760008;28;20076;-57
2020/12/27 12:00:34;;;;;;;1999.90;999.90;;;;;;;3.57;49.65;99367.75;15746071;28;20067;-57
2020/12/27 12:08:07;;;;;;;1999.90;999.90;;;;;;;3.56;49.26;99355.09;15772178;28;20051;-53
2020/12/27 12:15:42;;;;;;;1999.90;999.90;;;;;;;3.57;49.17;99340.19;15746284;28;20151;-55
2020/12/27 12:23:16;;;;;;;1999.90;999.90;;;;;;;3.73;48.25;99319.28;15726779;28;20226;-55
2020/12/27 12:30:51;;;;;;;1999.90;999.90;;;;;;;3.73;47.14;99319.28;15711794;28;20522;-56
2020/12/27 12:38:24;;;;;;;1999.90;999.90;;;;;;;3.96;46.23;99292.34;15746796;28;20497;-57
2020/12/27 12:45:57;;;;;;;1999.90;999.90;;;;;;;3.93;46.87;99246.91;15742785;28;20518;-56
2020/12/27 12:53:31;;;;;;;1999.90;999.90;;;;;;;3.97;47.09;99217.53;15747611;28;20423;-56
2020/12/27 13:01:04;;;;;;;1999.90;999.90;;;;;;;4.07;46.52;99215.59;15755657;28;20418;-58
2020/12/27 13:08:38;;;;;;;1999.90;999.90;;;;;;;4.08;46.63;99184.09;15733954;28;20144;-58
2020/12/27 13:16:11;;;;;;;1999.90;999.90;;;;;;;4.18;46.63;99176.28;15744113;28;20493;-56
2020/12/27 13:23:44;;;;;;;1999.90;999.90;;;;;;;4.10;46.95;99143.16;15738933;28;20066;-53
2020/12/27 13:31:17;;;;;;;1999.90;999.90;;;;;;;3.76;47.40;99136.56;15720951;28;20080;-55
2020/12/27 13:38:50;;;;;;;1999.90;999.90;;;;;;;3.77;47.82;99129.91;15738675;28;20049;-57
2020/12/27 13:46:23;;;;;;;1999.90;999.90;;;;;;;3.85;47.30;99117.22;15720759;28;20041;-54
2020/12/27 13:53:57;;;;;;;1999.90;999.90;;;;;;;3.60;48.04;99089.34;15736391;28;20052;-52
2020/12/27 14:01:30;;;;;;;;;;;;;;;3.66;47.80;99065.19;15720498;28;20052;-55
2020/12/27 14:09:04;;;;;;;1999.90;999.90;;;;;;;3.37;48.16;99063.91;15764046;28;20380;-57
2020/12/27 14:16:36;;;;;;;1999.90;999.90;;;;;;;3.31;48.49;99043.13;15719057;28;20090;-52
2020/12/27 14:24:10;;;;;;;1999.90;999.90;;;;;;;3.34;48.42;99020.47;15718040;28;20469;-53
2020/12/27 14:31:42;;;;;;;1999.90;999.90;;;;;;;3.21;48.08;99015.91;15735876;28;20472;-67
2020/12/27 14:39:16;;;;;;;1999.90;999.90;;;;;;;3.21;47.90;98985.59;15717837;28;20135;-57
2020/12/27 14:46:49;;;;;;;1999.90;999.90;;;;;;;3.35;47.08;98999.22;15735281;28;20053;-58
2020/12/27 14:54:23;;;;;;;1999.90;999.90;;;;;;;3.03;47.40;98995.03;15717672;28;20037;-54
2020/12/27 15:01:58;;;;;;;1999.90;999.90;;;;;;;3.19;47.10;98963.88;15734529;28;20124;-55
2020/12/27 15:09:31;;;;;;;1999.90;999.90;;;;;;;3.41;46.33;98943.53;15716278;28;20044;-57
2020/12/27 15:17:04;;;;;;;1999.90;999.90;;;;;;;3.33;46.16;98927.84;15722652;28;20037;-55
2020/12/27 15:24:38;;;;;;;1999.90;999.90;;;;;;;3.12;45.65;98932.41;15654940;28;20397;-55
2020/12/27 15:32:10;;;;;;;1999.90;999.90;;;;;;;3.21;45.92;98930.47;15725660;28;20044;-55
2020/12/27 15:39:45;;;;;;;1999.90;999.90;;;;;;;3.35;45.52;98905.47;15733720;28;20049;-56
2020/12/27 15:47:18;;;;;;;1999.90;999.90;;;;;;;3.31;45.18;98897.03;15733062;28;20051;-56
2020/12/27 15:54:51;;;;;;;1999.90;999.90;;;;;;;3.49;45.37;98864.69;15733386;28;20046;-57
2020/12/27 16:02:24;;;;;;;1999.90;999.90;;;;;;;2.94;45.85;98831.66;15733146;28;20040;-58
2020/12/27 16:09:57;;;;;;;1999.90;999.90;;;;;;;3.17;45.64;98827.53;15734246;28;20131;-58
2020/12/27 16:17:30;;;;;;;1999.90;999.90;;;;;;;3.16;45.52;98809.38;15741577;28;20048;-58
2020/12/27 16:25:03;;;;;;;1999.90;999.90;;;;;;;3.14;45.38;98798.69;15743171;28;20058;-58
2020/12/27 16:32:36;;;;;;;;;;;;;;;3.24;45.59;98766.41;15744296;28;20048;-58
2020/12/27 16:40:10;;;;;;;1999.90;999.90;;;;;;;3.09;45.74;98763.03;15725677;28;19920;-57
2020/12/27 16:47:43;;;;;;;1999.90;999.90;;;;;;;3.14;46.01;98727.03;15725254;28;20036;-59
2020/12/27 16:55:16;;;;;;;1999.90;999.90;;;;;;;3.14;45.95;98696.72;15741351;28;20053;-57
2020/12/27 17:02:49;;;;;;;1999.90;999.90;;;;;;;3.01;46.33;98717.03;15721188;28;20123;-59
2020/12/27 17:10:23;;;;;;;1999.90;999.90;;;;;;;3.22;45.98;98684.03;15741312;28;20413;-60
2020/12/27 17:17:55;;;;;;;1999.90;999.90;;;;;;;3.31;45.97;98670.19;15741861;28;20040;-56
2020/12/27 17:25:32;;;;;;;1999.90;999.90;;;;;;;3.38;46.00;98668.53;15740711;28;20151;-58
2020/12/27 17:33:04;;;;;;;1999.90;999.90;;;;;;;3.30;46.01;98655.59;15698106;28;21339;-58
2020/12/27 17:40:38;;;;;;;1999.90;999.90;;;;;;;3.31;46.52;98643.44;15741694;28;20036;-57
2020/12/27 17:48:10;;;;;;;1999.90;999.90;;;;;;;3.29;47.02;98615.41;15707372;28;20148;-56
2020/12/27 17:55:44;;;;;;;1999.90;999.90;;;;;;;3.41;47.28;98622.94;15737792;28;20044;-57
2020/12/27 18:03:17;;;;;;;1999.90;999.90;;;;;;;3.31;47.70;98585.53;15790460;28;20047;-58
2020/12/27 18:10:50;;;;;;;1999.90;999.90;;;;;;;3.35;47.77;98575.47;15755246;28;20056;-55
2020/12/27 18:18:23;;;;;;;1999.90;999.90;;;;;;;3.43;47.35;98565.50;15736119;28;20044;-58
2020/12/27 18:25:56;;;;;;;1999.90;999.90;;;;;;;3.48;46.98;98555.09;15736142;28;20051;-58
2020/12/27 18:33:29;;;;;;;1999.90;999.90;;;;;;;3.44;47.42;98545.09;15701719;28;20072;-57
2020/12/27 18:41:04;;;;;;;1999.90;999.90;;;;;;;3.55;46.93;98540.75;15736387;28;20065;-59
2020/12/27 18:48:37;;;;;;;1999.90;999.90;;;;;;;3.43;47.53;98535.16;15735978;28;20056;-59
2020/12/27 18:56:14;;;;;;;1999.90;999.90;;;;;;;3.44;47.70;98532.09;15736257;28;20106;-57
2020/12/27 19:03:49;;;;;;;1999.90;999.90;;;;;;;3.63;47.43;98498.47;15717167;28;20373;-59
2020/12/27 19:11:22;;;;;;;1999.90;999.90;;;;;;;3.57;47.99;98491.59;15717338;28;20076;-57
2020/12/27 19:18:55;;;;;;;1999.90;999.90;;;;;;;3.68;48.37;98483.69;15734737;28;20045;-52
2020/12/27 19:26:29;;;;;;;1999.90;999.90;;;;;;;3.74;48.07;98463.78;15734613;28;20052;-53
2020/12/27 19:34:02;;;;;;;1999.90;999.90;;;;;;;3.48;48.55;98469.59;15734423;28;20056;-58
2020/12/27 19:41:35;;;;;;;1999.90;999.90;;;;;;;3.73;49.03;98434.59;15735333;28;20045;-57
2020/12/27 19:49:08;;;;;;;1999.90;999.90;;;;;;;3.66;49.53;98434.38;15721159;28;20044;-52
2020/12/27 19:56:41;;;;;;;1999.90;999.90;;;;;;;3.93;49.44;98424.63;15746259;28;20135;-56
2020/12/27 20:04:14;;;;;;;1999.90;999.90;;;;;;;4.05;48.81;98427.38;15744725;28;20036;-57
2020/12/27 20:11:47;;;;;;;1999.90;999.90;;;;;;;4.29;52.08;98411.97;15726640;28;20141;-58
2020/12/27 20:19:20;;;;;;;1999.90;999.90;;;;;;;3.87;49.30;98411.41;15743193;28;20145;-56
2020/12/27 20:26:54;;;;;;;1999.90;999.90;;;;;;;3.90;49.96;98419.00;15725107;28;20094;-59
2020/12/27 20:34:27;;;;;;;1999.90;999.90;;;;;;;3.86;50.74;98404.28;15742539;28;20105;-54
2020/12/27 20:42:00;;;;;;;1999.90;999.90;;;;;;;3.93;50.56;98393.47;15701504;28;20044;-59
2020/12/27 20:49:33;;;;;;;1999.90;999.90;;;;;;;3.98;50.45;98376.69;15742259;28;20359;-57
2020/12/27 20:57:07;;;;;;;1999.90;999.90;;;;;;;4.03;50.72;98359.91;15715472;28;20444;-56
2020/12/27 21:04:43;;;;;;;1999.90;999.90;;;;;;;4.11;51.01;98355.41;15719277;28;20055;-52
2020/12/27 21:12:21;;;;;;;1999.90;999.90;;;;;;;4.24;50.64;98360.56;15721937;28;20054;-51
2020/12/27 21:19:53;;;;;;;;;;;;;;;4.22;51.09;98351.81;15750365;28;20047;-51
2020/12/27 21:27:28;;;;;;;1999.90;999.90;;;;;;;4.17;51.10;98354.00;15753829;28;19992;-51
2020/12/27 21:35:01;;;;;;;1999.90;999.90;;;;;;;4.11;50.83;98355.41;15741269;28;20058;-59
2020/12/27 21:42:34;;;;;;;1999.90;999.90;;;;;;;4.63;50.68;98349.88;15738867;28;20068;-56
2020/12/27 21:50:07;;;;;;;1999.90;999.90;;;;;;;4.14;51.54;98335.38;15738988;28;20040;-58
2020/12/27 21:57:41;;;;;;;1999.90;999.90;;;;;;;4.21;51.16;98333.66;15719432;28;20485;-52
2020/12/27 22:05:13;;;;;;;1999.90;999.90;;;;;;;4.42;50.66;98327.16;15725314;28;20527;-57
2020/12/27 22:12:47;;;;;;;1999.90;999.90;;;;;;;4.55;50.36;98312.94;15736929;28;20078;-59
2020/12/27 22:20:19;;;;;;;1999.90;999.90;;;;;;;4.49;50.42;98313.56;15737773;28;20075;-53
2020/12/27 22:27:55;;;;;;;1999.90;999.90;;;;;;;4.28;50.79;98320.06;15717984;28;20072;-53
2020/12/27 22:35:27;;;;;;;1999.90;999.90;;;;;;;4.32;50.75;98309.94;15718824;28;20509;-54
2020/12/27 22:43:01;;;;;;;1999.90;999.90;;;;;;;4.25;50.83;98303.38;15717701;28;20036;-59
2020/12/27 22:50:34;;;;;;;1999.90;999.90;;;;;;;4.23;51.11;98287.19;15734693;28;20052;-53
2020/12/27 22:58:07;;;;;;;1999.90;999.90;;;;;;;4.44;51.06;98286.19;15733121;28;20045;-53
2020/12/27 23:05:39;;;;;;;1999.90;999.90;;;;;;;4.35;51.42;98300.94;15733536;28;20058;-52
2020/12/27 23:13:13;;;;;;;1999.90;999.90;;;;;;;4.53;51.38;98287.66;15716246;28;20079;-51
2020/12/27 23:20:47;;;;;;;1999.90;999.90;;;;;;;4.28;51.72;98288.91;15734445;28;20146;-56
2020/12/27 23:28:21;;;;;;;1999.90;999.90;;;;;;;4.29;51.88;98282.22;15734326;28;20151;-56
2020/12/27 23:35:55;;;;;;;1999.90;999.90;;;;;;;4.61;50.84;98270.13;15716970;28;20032;-56
2020/12/27 23:43:28;;;;;;;1999.90;999.90;;;;;;;4.51;52.38;98267.06;15734796;28;20561;-55
2020/12/27 23:51:00;;;;;;;1999.90;999.90;;;;;;;4.34;52.48;98243.31;15715739;28;20128;-51
2020/12/27 23:58:34;;;;;;;1999.90;999.90;;;;;;;4.52;52.30;98235.53;15733410;28;20466;-51
